Pagrindinis puslapis
METAR-TAF:

METAR-TAF

Oro uostai :

Oradia, Rumunija

platuma: 47-03N, ilguma: 021-56E, Aukštis: 135 m

Dabartinis oras

Ataskaita buvo paskelbta 26 minutes, ne 23:30 UTC
Vėjas 6 kt iš Rytų/Pietryčių
Temperatūra 9°C
Drėgmė 76%
Slėgis 1010 hPa
Matomumas 10 km arba daugiau

METAR: LROD 252330Z AUTO 11006KT 9999 FEW130/// 09/05 Q1010

Laikas: 01:56 (23:56 UTC)

Prognozė

Ataskaita buvo paskelbta 6 valandos ir 56 minutes, ne 17:00 UTC
Prognozė galioja nuo 25 metu 18 UTC su 26 metu 03 UTC
Vėjas 6 kt iš Rytų/Pietryčių
Matomumas 10 km arba daugiau
nėra debesų žemiau 1500 m ir nėra kamuolinių lietaus debesų

TAF: LROD 251700Z 2518/2603 12006KT CAVOK

Orai ataskaitas ir orų prognozės (METAR, TAF).

turimą stotys yra geltonos ir raudonos taškus žemėlapyje.

Perkelti pele per norėdami pamatyti stoties vardą.

Tada spustelėkite, norėdami matyti oro stebėjimo ir prognozės.

Norėdami pakeisti žemėlapį: spustelėkite ant žalios mygtukų su juodo kryžiaus žemyn,; žalią mygtuką su brūkšneliu, jei norite nutolinti; arba žalių rodyklių gretimoms žemėlapius.


METAR-TAF: